Time;durP1;ratioP1;P1;durP2;ratioP2;P2;SDS_P1;SDS_P2;PMS_P1;PMS_P2;Temp;Humidity;BMP_temperature;BMP_pressure;BME280_temperature;BME280_humidity;BME280_pressure;Samples;Min_cycle;Max_cycle;Signal;HPM_P1;HPM_P2
2021/06/11 00:00:50;;;;;;;6.47;5.88;;;;;;;19.80;71.96;100211.19;5013304;28;20482;-72
2021/06/11 00:03:17;;;;;;;8.15;5.05;;;;;;;19.94;71.98;100233.84;5012038;28;20409;-72
2021/06/11 00:05:42;;;;;;;6.82;5.50;;;;;;;20.06;72.05;100240.78;5011928;28;20040;-70
2021/06/11 00:08:08;;;;;;;7.05;5.68;;;;;;;20.00;72.25;100225.94;4993118;28;20034;-72
2021/06/11 00:10:34;;;;;;;6.30;5.63;;;;;;;19.73;72.92;100209.50;5014336;28;20172;-71
2021/06/11 00:13:00;;;;;;;7.20;5.65;;;;;;;19.86;73.55;100226.91;5015407;28;20160;-73
2021/06/11 00:15:27;;;;;;;10.82;6.25;;;;;;;19.64;73.56;100199.03;5012925;28;20108;-70
2021/06/11 00:17:53;;;;;;;7.75;5.97;;;;;;;19.72;73.29;100223.47;5013420;28;20163;-71
2021/06/11 00:20:19;;;;;;;8.75;5.90;;;;;;;19.78;73.32;100212.94;5012803;28;20025;-72
2021/06/11 00:22:46;;;;;;;9.55;6.43;;;;;;;19.77;74.31;100229.53;5011895;28;20025;-70
2021/06/11 00:25:16;;;;;;;7.25;6.15;;;;;;;19.80;73.53;100226.03;5011472;28;20030;-72
2021/06/11 00:27:41;;;;;;;6.40;5.80;;;;;;;19.06;74.12;100104.19;5014003;28;20488;-71
2021/06/11 00:30:09;;;;;;;8.82;6.05;;;;;;;19.60;74.18;100210.41;5015666;28;20029;-69
2021/06/11 00:32:35;;;;;;;9.48;6.35;;;;;;;19.59;74.95;100219.13;5012746;28;20021;-71
2021/06/11 00:35:01;;;;;;;7.55;5.82;;;;;;;19.42;75.27;100208.75;5013578;28;20026;-69
2021/06/11 00:37:27;;;;;;;12.05;6.82;;;;;;;19.42;75.59;100214.00;5012367;28;20036;-69
2021/06/11 00:39:53;;;;;;;7.65;6.75;;;;;;;19.11;75.68;100162.59;5012051;28;20049;-70
2021/06/11 00:42:18;;;;;;;10.65;6.55;;;;;;;19.09;75.89;100203.63;5014100;28;20072;-72
2021/06/11 00:44:43;;;;;;;8.50;6.82;;;;;;;19.11;76.53;100214.94;5027904;28;20107;-72
2021/06/11 00:47:10;;;;;;;7.75;6.45;;;;;;;19.20;75.97;100206.19;5012526;28;20481;-69
2021/06/11 00:49:36;;;;;;;7.05;5.40;;;;;;;19.16;76.29;100207.94;5011896;28;20044;-71
2021/06/11 00:52:01;;;;;;;7.40;6.47;;;;;;;19.13;76.17;100209.69;5010092;28;20421;-69
2021/06/11 00:54:36;;;;;;;9.23;6.40;;;;;;;18.85;76.54;100170.47;5015868;28;20401;-70
2021/06/11 00:57:02;;;;;;;8.13;6.43;;;;;;;18.87;76.56;100187.06;5013060;28;20026;-72
2021/06/11 00:59:28;;;;;;;8.48;6.45;;;;;;;19.02;76.53;100223.69;5013161;28;20071;-68
2021/06/11 01:01:53;;;;;;;7.25;6.47;;;;;;;18.98;76.81;100229.78;5012003;28;20026;-72
2021/06/11 01:04:19;;;;;;;7.60;6.20;;;;;;;18.84;77.92;100221.06;5010851;28;20034;-71
2021/06/11 01:06:46;;;;;;;9.48;6.85;;;;;;;18.83;77.54;100207.13;5011592;28;20393;-70
2021/06/11 01:09:12;;;;;;;10.50;6.80;;;;;;;18.71;77.90;100194.06;5011082;28;20093;-73
2021/06/11 01:11:40;;;;;;;10.10;6.28;;;;;;;18.30;78.21;100129.59;5015266;28;20026;-72
2021/06/11 01:14:07;;;;;;;9.23;6.57;;;;;;;18.80;78.46;100217.56;5013002;28;20104;-74
2021/06/11 01:16:33;;;;;;;8.43;6.45;;;;;;;18.79;78.11;100214.97;5013670;28;20045;-72
2021/06/11 01:18:58;;;;;;;7.85;6.00;;;;;;;18.46;78.47;100159.22;5011715;28;20076;-71
2021/06/11 01:21:29;;;;;;;11.25;6.43;;;;;;;18.53;78.19;100164.44;5012354;28;20068;-71
2021/06/11 01:24:16;;;;;;;12.73;7.20;;;;;;;18.81;78.48;100221.06;5010959;28;20101;-73
2021/06/11 01:26:48;;;;;;;6.95;6.25;;;;;;;18.72;78.70;100227.19;5012533;28;20085;-75
2021/06/11 01:29:19;;;;;;;7.63;6.32;;;;;;;18.67;79.33;100219.31;5012299;28;20053;-72
2021/06/11 01:31:50;;;;;;;11.88;7.05;;;;;;;18.51;79.67;100192.31;5013039;28;20033;-74
2021/06/11 01:34:29;;;;;;;10.23;7.32;;;;;;;18.56;80.39;100214.09;5011783;28;20072;-72
2021/06/11 01:37:08;;;;;;;10.27;7.60;;;;;;;18.55;80.36;100216.72;5011445;28;20117;-69
2021/06/11 01:39:37;;;;;;;10.88;6.97;;;;;;;18.56;80.49;100200.16;5009531;28;20022;-73
2021/06/11 01:42:03;;;;;;;9.95;6.65;;;;;;;18.75;80.16;100219.31;5012183;28;20026;-69
2021/06/11 01:44:30;;;;;;;8.60;6.20;;;;;;;18.74;80.24;100208.00;5012883;28;20393;-75
2021/06/11 01:46:58;;;;;;;8.90;6.40;;;;;;;18.68;80.21;100204.50;5011333;28;20053;-72
2021/06/11 01:49:26;;;;;;;8.77;6.43;;;;;;;18.90;79.89;100218.44;5011660;28;20018;-73
2021/06/11 01:51:53;;;;;;;8.75;6.30;;;;;;;18.64;80.79;100216.72;5008135;28;20040;-71
2021/06/11 01:54:19;;;;;;;10.35;6.60;;;;;;;18.79;80.27;100222.81;5015180;28;20394;-70
2021/06/11 01:56:45;;;;;;;13.30;6.88;;;;;;;18.75;80.29;100217.59;5012517;28;20014;-71
2021/06/11 01:59:13;;;;;;;10.13;7.05;;;;;;;18.75;80.51;100208.84;5012510;28;20497;-71
2021/06/11 02:01:40;;;;;;;12.52;7.60;;;;;;;18.80;80.57;100214.09;5012176;28;20504;-71
2021/06/11 02:04:07;;;;;;;11.15;6.90;;;;;;;18.61;81.29;100213.25;5010822;28;20026;-73
2021/06/11 02:06:33;;;;;;;11.57;7.60;;;;;;;18.70;81.50;100210.59;5009789;28;20399;-74
2021/06/11 02:08:59;;;;;;;13.80;7.90;;;;;;;18.66;81.14;100199.28;5008991;28;20493;-71
2021/06/11 02:11:26;;;;;;;9.98;7.90;;;;;;;18.65;80.78;100183.59;5015126;28;20032;-73
2021/06/11 02:13:54;;;;;;;10.95;8.10;;;;;;;18.38;80.81;100147.03;5013040;28;20029;-69
2021/06/11 02:16:23;;;;;;;9.70;8.18;;;;;;;18.73;81.12;100203.63;5014514;28;20034;-73
2021/06/11 02:18:49;;;;;;;15.48;8.25;;;;;;;18.81;81.15;100214.06;5012745;28;20084;-70
2021/06/11 02:21:15;;;;;;;10.55;8.40;;;;;;;18.45;81.16;100155.72;5013005;28;20033;-71
2021/06/11 02:23:40;;;;;;;9.40;7.43;;;;;;;18.41;81.60;100157.44;5013480;28;20026;-69
2021/06/11 02:26:10;;;;;;;13.05;8.30;;;;;;;18.82;81.46;100205.38;5013154;28;20061;-71
2021/06/11 02:28:35;;;;;;;13.85;8.30;;;;;;;18.82;80.97;100200.13;5015034;28;20029;-74
2021/06/11 02:31:01;;;;;;;12.57;7.97;;;;;;;18.78;80.87;100182.72;5012226;28;20038;-73
2021/06/11 02:33:27;;;;;;;15.50;9.32;;;;;;;18.53;80.77;100133.06;5011584;28;20037;-71
2021/06/11 02:35:56;;;;;;;12.75;8.48;;;;;;;19.03;80.43;100211.47;5007736;28;20018;-70
2021/06/11 02:38:22;;;;;;;14.98;8.82;;;;;;;18.90;80.92;100194.88;5007606;28;20185;-71
2021/06/11 02:40:52;;;;;;;17.48;9.20;;;;;;;18.55;81.24;100161.81;5011199;28;20543;-72
2021/06/11 02:43:20;;;;;;;12.32;8.98;;;;;;;18.64;82.05;100197.53;5014083;28;20510;-69
2021/06/11 02:46:03;;;;;;;12.53;9.40;;;;;;;18.74;82.36;100214.94;5013906;28;20558;-71
2021/06/11 02:48:34;;;;;;;16.45;9.40;;;;;;;18.79;82.19;100212.34;5013682;28;20343;-72
2021/06/11 02:51:09;;;;;;;15.68;9.85;;;;;;;18.45;81.93;100147.00;5014015;28;20164;-69
2021/06/11 02:53:36;;;;;;;15.98;9.82;;;;;;;18.84;81.45;100205.34;5013931;28;20040;-69
2021/06/11 02:56:08;;;;;;;14.35;9.27;;;;;;;18.78;81.48;100189.66;5014078;28;20092;-71
2021/06/11 02:58:44;;;;;;;13.43;9.73;;;;;;;18.85;81.52;100196.63;5012783;28;20041;-74
2021/06/11 03:01:12;;;;;;;13.57;9.55;;;;;;;18.97;81.16;100212.34;5013715;28;20076;-70
2021/06/11 03:03:39;;;;;;;15.18;9.45;;;;;;;18.97;81.20;100208.88;5013812;28;20120;-68
2021/06/11 03:06:06;;;;;;;17.67;10.52;;;;;;;18.90;81.27;100211.50;5013677;28;20026;-70
2021/06/11 03:08:36;;;;;;;11.93;9.98;;;;;;;18.92;81.16;100204.50;5012696;28;20036;-70
2021/06/11 03:11:06;;;;;;;12.00;10.38;;;;;;;19.01;81.22;100224.53;5013330;28;20049;-70
2021/06/11 03:13:32;;;;;;;;;;;;;;;18.91;81.60;100218.44;5014628;28;20040;-71
2021/06/11 03:15:59;;;;;;;12.93;9.85;;;;;;;18.16;82.14;100122.63;5012487;28;19920;-71
2021/06/11 03:18:35;;;;;;;15.55;11.15;;;;;;;18.85;82.29;100220.19;4990453;28;20035;-69
2021/06/11 03:21:15;;;;;;;15.00;9.95;;;;;;;18.56;81.71;100159.19;5021781;28;20386;-72
2021/06/11 03:23:46;;;;;;;12.25;9.48;;;;;;;18.90;81.62;100227.19;4994325;28;20037;-70
2021/06/11 03:26:14;;;;;;;16.75;9.82;;;;;;;18.92;81.71;100233.28;5004922;28;20050;-70
2021/06/11 03:28:46;;;;;;;14.38;9.65;;;;;;;18.84;81.87;100231.50;5014865;28;20022;-72
2021/06/11 03:31:19;;;;;;;15.82;9.65;;;;;;;18.78;82.29;100231.50;5014129;28;20096;-69
2021/06/11 03:33:48;;;;;;;14.20;10.38;;;;;;;18.64;82.69;100219.34;5014611;28;20034;-69
2021/06/11 03:36:24;;;;;;;15.63;10.82;;;;;;;18.24;83.32;100173.16;5001796;28;20081;-69
2021/06/11 03:38:58;;;;;;;18.83;11.00;;;;;;;18.56;83.38;100232.38;5013393;28;20022;-69
2021/06/11 03:41:23;;;;;;;12.93;10.60;;;;;;;18.56;84.01;100226.31;5013103;28;20101;-71
2021/06/11 03:43:52;;;;;;;14.55;10.88;;;;;;;18.32;84.61;100214.06;5012810;28;20156;-71
2021/06/11 03:46:18;;;;;;;12.60;11.00;;;;;;;18.45;84.96;100233.28;5013078;28;20091;-70
2021/06/11 03:48:51;;;;;;;15.10;11.38;;;;;;;18.50;84.69;100239.38;5012448;28;20425;-70
2021/06/11 03:51:19;;;;;;;16.50;11.38;;;;;;;18.54;84.71;100239.38;5003685;28;20101;-69
2021/06/11 03:53:45;;;;;;;14.48;11.48;;;;;;;18.55;84.76;100235.00;4994741;28;20069;-69
2021/06/11 03:56:12;;;;;;;13.85;11.25;;;;;;;18.59;84.70;100242.88;5000363;28;20017;-80
2021/06/11 03:58:47;;;;;;;22.33;11.75;;;;;;;18.30;84.78;100181.88;4999620;28;20528;-68
2021/06/11 04:01:26;;;;;;;13.60;10.73;;;;;;;18.70;84.57;100235.00;5003055;28;20066;-71
2021/06/11 04:03:53;;;;;;;16.67;11.87;;;;;;;18.74;84.35;100244.59;5023672;28;20021;-69
2021/06/11 04:06:54;;;;;;;17.55;11.90;;;;;;;18.19;84.32;100138.28;5015851;28;20025;-72
2021/06/11 04:09:25;;;;;;;18.13;11.93;;;;;;;18.73;84.41;100244.63;4960207;28;20069;-70
2021/06/11 04:12:05;;;;;;;16.00;11.98;;;;;;;18.61;85.16;100242.84;4966408;28;20039;-73
2021/06/11 04:14:37;;;;;;;15.20;11.20;;;;;;;18.54;85.27;100236.78;4968997;28;20022;-71
2021/06/11 04:17:08;;;;;;;14.00;11.73;;;;;;;18.56;85.80;100234.16;4967110;28;20034;-70
2021/06/11 04:19:48;;;;;;;16.00;11.70;;;;;;;18.72;85.43;100253.31;4969752;28;20043;-70
2021/06/11 04:22:14;;;;;;;14.77;11.02;;;;;;;18.87;86.17;100252.44;4963508;28;20065;-72
2021/06/11 04:24:45;;;;;;;14.88;10.75;;;;;;;18.87;85.38;100255.06;4967889;28;20038;-70
2021/06/11 04:27:12;;;;;;;16.05;10.93;;;;;;;18.69;85.79;100258.53;4965418;28;20059;-70
2021/06/11 04:29:39;;;;;;;18.55;11.23;;;;;;;18.12;84.94;100154.84;4968287;28;20058;-69
2021/06/11 04:32:05;;;;;;;15.60;10.90;;;;;;;18.76;85.59;100261.16;4965539;28;20522;-71
2021/06/11 04:34:31;;;;;;;18.63;9.80;;;;;;;18.87;84.07;100268.13;4957135;28;20051;-71
2021/06/11 04:36:56;;;;;;;14.18;10.57;;;;;;;18.82;84.22;100270.75;4967464;28;20069;-70
2021/06/11 04:39:22;;;;;;;13.43;9.88;;;;;;;18.67;83.78;100228.94;4962429;28;20554;-70
2021/06/11 04:41:48;;;;;;;15.93;10.32;;;;;;;18.87;83.18;100257.69;4951428;29;20031;-71
2021/06/11 04:44:13;;;;;;;14.95;9.55;;;;;;;18.92;82.98;100255.97;4965537;28;20041;-69
2021/06/11 04:46:40;;;;;;;14.38;9.63;;;;;;;18.91;82.93;100267.28;5010674;28;20037;-69
2021/06/11 04:49:07;;;;;;;12.45;9.70;;;;;;;19.07;83.31;100276.00;4989387;28;20049;-73
2021/06/11 04:51:33;;;;;;;14.27;11.05;;;;;;;19.12;82.76;100282.09;4989870;28;20490;-70
2021/06/11 04:53:58;;;;;;;16.80;10.82;;;;;;;19.19;82.40;100281.22;4990031;28;20035;-70
2021/06/11 04:56:24;;;;;;;16.58;11.32;;;;;;;19.13;82.63;100281.22;4989514;28;20418;-74
2021/06/11 04:58:52;;;;;;;15.70;10.55;;;;;;;18.82;82.24;100228.03;4989967;28;20092;-70
2021/06/11 05:01:17;;;;;;;22.15;13.02;;;;;;;18.99;83.17;100277.75;4989551;28;20026;-70
2021/06/11 05:03:43;;;;;;;22.48;13.40;;;;;;;18.86;84.56;100277.72;4989242;28;20104;-70
2021/06/11 05:06:09;;;;;;;16.27;12.18;;;;;;;18.88;84.57;100272.50;4989488;28;20031;-71
2021/06/11 05:08:34;;;;;;;15.05;10.77;;;;;;;18.99;84.40;100290.81;4989440;28;20041;-71
2021/06/11 05:11:01;;;;;;;14.50;10.52;;;;;;;18.78;83.84;100253.31;4989821;28;20030;-72
2021/06/11 05:13:27;;;;;;;15.85;12.10;;;;;;;19.04;83.63;100284.72;4989686;28;20117;-70
2021/06/11 05:15:53;;;;;;;14.32;10.85;;;;;;;19.19;83.72;100293.41;4989670;28;20097;-70
2021/06/11 05:18:18;;;;;;;17.55;11.73;;;;;;;19.28;83.36;100300.38;4972580;28;20562;-70
2021/06/11 05:20:44;;;;;;;16.35;9.65;;;;;;;19.16;83.59;100293.44;5000979;28;20053;-70
2021/06/11 05:23:10;;;;;;;16.40;10.95;;;;;;;19.34;84.22;100300.38;5011391;28;20024;-70
2021/06/11 05:25:37;;;;;;;17.30;11.60;;;;;;;19.50;82.85;100306.44;5011438;28;20041;-70
2021/06/11 05:28:03;;;;;;;15.70;10.52;;;;;;;19.54;82.53;100308.22;5011176;28;20497;-69
2021/06/11 05:30:28;;;;;;;13.18;10.65;;;;;;;19.16;82.80;100243.72;5011632;28;20032;-69
2021/06/11 05:32:55;;;;;;;11.32;9.75;;;;;;;19.48;82.40;100297.75;5010898;28;20104;-72
2021/06/11 05:35:21;;;;;;;15.20;10.35;;;;;;;19.47;83.53;100288.16;5011214;28;20405;-70
2021/06/11 05:37:47;;;;;;;14.07;10.07;;;;;;;19.45;83.23;100292.50;5011454;28;20503;-69
2021/06/11 05:40:14;;;;;;;14.73;10.95;;;;;;;19.48;82.62;100306.47;5011188;28;20105;-70
2021/06/11 05:42:39;;;;;;;13.60;10.05;;;;;;;19.54;83.28;100310.81;5011206;28;20018;-70
2021/06/11 05:45:07;;;;;;;12.57;9.77;;;;;;;19.68;83.31;100313.41;5011250;28;20037;-69
2021/06/11 05:47:32;;;;;;;14.18;9.20;;;;;;;19.49;82.20;100255.84;5009084;28;20408;-70
2021/06/11 05:49:58;;;;;;;14.10;8.77;;;;;;;18.66;83.68;100153.97;5011390;28;20026;-73
2021/06/11 05:52:23;;;;;;;15.55;9.55;;;;;;;19.55;83.87;100305.59;5010952;28;20550;-69
2021/06/11 05:54:48;;;;;;;13.40;9.57;;;;;;;19.36;82.80;100262.00;5011093;28;20033;-72
2021/06/11 05:57:14;;;;;;;14.05;8.52;;;;;;;19.70;81.58;100301.16;5011070;28;20056;-72
2021/06/11 05:59:40;;;;;;;10.60;9.10;;;;;;;19.68;81.45;100266.25;5011244;28;20057;-70
2021/06/11 06:02:05;;;;;;;12.50;8.45;;;;;;;20.00;81.07;100317.66;5010672;28;20018;-70
2021/06/11 06:04:31;;;;;;;15.27;7.88;;;;;;;19.90;81.51;100305.50;5009756;28;20037;-70
2021/06/11 06:06:59;;;;;;;9.77;7.20;;;;;;;20.13;78.52;100321.13;5011241;28;20128;-71
2021/06/11 06:09:25;;;;;;;11.57;8.05;;;;;;;20.15;80.27;100312.38;5010685;28;20492;-70
2021/06/11 06:11:51;;;;;;;12.55;8.07;;;;;;;19.30;80.27;100171.28;5011213;28;20026;-70
2021/06/11 06:14:17;;;;;;;13.32;7.25;;;;;;;19.90;79.12;100250.47;5012065;28;20552;-72
2021/06/11 06:16:42;;;;;;;10.07;7.57;;;;;;;20.31;79.10;100328.91;5013150;28;20105;-70
2021/06/11 06:19:08;;;;;;;13.55;7.38;;;;;;;19.99;78.57;100253.06;5015006;28;20096;-70
2021/06/11 06:21:33;;;;;;;9.05;7.10;;;;;;;20.48;77.82;100318.28;5014368;28;20045;-70
2021/06/11 06:23:59;;;;;;;10.18;6.30;;;;;;;20.36;76.85;100314.00;5014881;28;20026;-69
2021/06/11 06:26:26;;;;;;;12.15;6.95;;;;;;;20.10;76.81;100274.84;5014651;28;20120;-71
2021/06/11 06:28:51;;;;;;;12.75;6.93;;;;;;;20.51;77.14;100318.28;5014426;28;20022;-70
2021/06/11 06:31:17;;;;;;;8.10;6.63;;;;;;;20.36;77.48;100269.44;5014123;28;20044;-70
2021/06/11 06:33:42;;;;;;;7.55;6.18;;;;;;;20.66;75.29;100311.16;5014457;28;20014;-70
2021/06/11 06:36:09;;;;;;;9.13;7.47;;;;;;;20.38;76.71;100247.59;5014621;28;20030;-70
2021/06/11 06:38:36;;;;;;;11.25;7.35;;;;;;;20.72;76.86;100287.56;5014125;28;20022;-71
2021/06/11 06:41:02;;;;;;;9.90;6.35;;;;;;;20.87;76.59;100302.28;5014335;28;20030;-69
2021/06/11 06:43:29;;;;;;;7.88;6.68;;;;;;;20.98;75.87;100313.56;5014097;28;20026;-70
2021/06/11 06:45:55;;;;;;;10.32;6.75;;;;;;;21.01;76.13;100310.94;5011016;28;20042;-70
2021/06/11 06:48:20;;;;;;;11.32;6.45;;;;;;;21.09;74.76;100315.25;5012020;28;20032;-70
2021/06/11 06:50:46;;;;;;;10.23;6.70;;;;;;;21.30;73.70;100324.69;5011485;28;20048;-69
2021/06/11 06:53:11;;;;;;;10.23;6.10;;;;;;;21.38;73.08;100324.59;5011884;28;20037;-69
2021/06/11 06:55:38;;;;;;;10.80;6.57;;;;;;;21.46;72.34;100315.75;5011863;28;20030;-70
2021/06/11 06:58:04;;;;;;;6.43;5.40;;;;;;;21.68;69.55;100323.44;5011783;28;20040;-70
2021/06/11 07:00:30;;;;;;;6.80;5.65;;;;;;;21.76;67.50;100310.22;5011310;28;20105;-70
2021/06/11 07:02:55;;;;;;;8.90;5.57;;;;;;;21.82;67.42;100302.28;5011440;28;20033;-71
2021/06/11 07:05:21;;;;;;;8.88;5.57;;;;;;;22.04;67.05;100313.34;5011470;28;20042;-73
2021/06/11 07:07:47;;;;;;;9.30;5.97;;;;;;;21.65;66.91;100253.41;5011284;28;20065;-69
2021/06/11 07:10:13;;;;;;;7.82;6.18;;;;;;;22.11;68.17;100312.41;5011760;28;20076;-70
2021/06/11 07:12:39;;;;;;;8.85;6.20;;;;;;;21.85;67.59;100259.31;5011416;28;20092;-69
2021/06/11 07:15:09;;;;;;;17.70;6.93;;;;;;;21.84;68.79;100276.81;5010877;28;20029;-70
2021/06/11 07:17:34;;;;;;;;;;;;;;;22.08;67.72;100312.44;5011681;28;20030;-70
2021/06/11 07:20:00;;;;;;;10.13;6.10;;;;;;;22.03;68.74;100302.88;5011225;28;19910;-69
2021/06/11 07:22:25;;;;;;;9.60;5.88;;;;;;;21.96;69.23;100296.84;5010640;28;20391;-69
2021/06/11 07:24:51;;;;;;;9.20;7.15;;;;;;;21.92;68.28;100306.50;5022470;28;20112;-71
2021/06/11 07:27:16;;;;;;;12.32;7.00;;;;;;;21.72;69.08;100295.38;5010649;28;20429;-69
2021/06/11 07:29:43;;;;;;;10.77;6.00;;;;;;;21.61;69.07;100285.00;5011248;28;20030;-69
2021/06/11 07:32:11;;;;;;;9.07;6.18;;;;;;;21.87;69.71;100289.94;5002106;28;20026;-70
2021/06/11 07:34:37;;;;;;;12.13;6.65;;;;;;;22.06;68.23;100298.44;4994264;28;20146;-72
2021/06/11 07:37:03;;;;;;;9.52;6.68;;;;;;;22.05;68.52;100275.66;4997120;28;20046;-69
2021/06/11 07:39:28;;;;;;;7.55;5.53;;;;;;;22.16;67.96;100272.91;4994086;28;20034;-70
2021/06/11 07:41:54;;;;;;;14.85;6.53;;;;;;;22.16;68.06;100283.41;4991093;28;20030;-70
2021/06/11 07:44:21;;;;;;;13.48;6.07;;;;;;;22.27;67.53;100280.66;4990833;28;20100;-75
2021/06/11 07:46:47;;;;;;;9.65;6.25;;;;;;;22.29;66.47;100281.47;4991265;28;20056;-70
2021/06/11 07:49:14;;;;;;;7.38;5.90;;;;;;;22.37;65.34;100271.75;4991028;28;20038;-70
2021/06/11 07:51:39;;;;;;;7.97;5.78;;;;;;;22.30;66.54;100270.06;4991144;28;20033;-72
2021/06/11 07:54:06;;;;;;;7.38;5.18;;;;;;;22.23;66.12;100287.72;4991105;28;20046;-74
2021/06/11 07:56:32;;;;;;;13.70;6.90;;;;;;;22.44;65.30;100278.66;4990778;28;20054;-70
2021/06/11 07:58:58;;;;;;;10.85;6.32;;;;;;;22.06;65.41;100188.03;4990816;28;20070;-69
2021/06/11 08:01:25;;;;;;;13.73;7.00;;;;;;;22.71;64.68;100275.63;4990779;28;20034;-70
2021/06/11 08:03:50;;;;;;;14.63;7.10;;;;;;;22.93;64.00;100295.41;4990797;28;20042;-71
2021/06/11 08:06:16;;;;;;;12.88;7.50;;;;;;;22.94;62.70;100286.63;5002171;28;20052;-69
2021/06/11 08:08:41;;;;;;;18.00;7.90;;;;;;;22.94;62.04;100288.38;5012390;28;20053;-69
2021/06/11 08:11:07;;;;;;;17.33;7.20;;;;;;;22.88;61.95;100276.19;5011982;28;20099;-73
2021/06/11 08:13:32;;;;;;;12.23;6.38;;;;;;;22.66;63.11;100235.38;5012623;28;20021;-70
2021/06/11 08:15:58;;;;;;;15.43;7.10;;;;;;;23.09;61.35;100282.84;5012573;28;20041;-70
2021/06/11 08:18:23;;;;;;;12.30;6.40;;;;;;;23.21;62.16;100270.41;5012217;28;20025;-69
2021/06/11 08:20:49;;;;;;;14.85;5.95;;;;;;;23.24;63.99;100286.13;5012543;28;20109;-70
2021/06/11 08:23:14;;;;;;;10.52;6.13;;;;;;;23.01;62.55;100290.00;5012471;28;20100;-70
2021/06/11 08:25:40;;;;;;;14.70;6.85;;;;;;;23.08;59.53;100280.25;5012439;28;20077;-69
2021/06/11 08:28:06;;;;;;;13.35;6.15;;;;;;;23.25;61.50;100280.84;5010968;28;20030;-70
2021/06/11 08:30:32;;;;;;;17.63;6.20;;;;;;;23.40;61.22;100286.72;5012115;28;20036;-70
2021/06/11 08:32:59;;;;;;;7.85;5.95;;;;;;;23.29;61.49;100284.31;5005597;28;20077;-71
2021/06/11 08:35:25;;;;;;;11.20;6.15;;;;;;;23.26;59.66;100274.69;5015977;28;20028;-70
2021/06/11 08:37:51;;;;;;;14.48;6.65;;;;;;;23.32;60.10;100278.97;5002919;28;20089;-69
2021/06/11 08:40:17;;;;;;;10.25;6.03;;;;;;;23.47;59.21;100269.91;4977464;28;20043;-70
2021/06/11 08:42:46;;;;;;;10.98;5.72;;;;;;;23.05;59.04;100175.88;4989738;28;20122;-72
2021/06/11 08:45:12;;;;;;;13.48;6.05;;;;;;;23.71;58.99;100259.75;4989289;28;20042;-70
2021/06/11 08:47:43;;;;;;;14.32;5.82;;;;;;;23.89;59.10;100274.34;4993147;28;20165;-70
2021/06/11 08:50:09;;;;;;;9.05;5.97;;;;;;;23.80;58.80;100256.94;4996098;28;20116;-69
2021/06/11 08:52:35;;;;;;;8.25;5.30;;;;;;;24.02;57.27;100270.53;4997128;28;20045;-70
2021/06/11 08:55:00;;;;;;;14.50;5.72;;;;;;;23.90;57.97;100245.28;4997676;28;20402;-70
2021/06/11 08:57:26;;;;;;;8.57;5.30;;;;;;;23.70;58.39;100206.19;4994902;28;20038;-71
2021/06/11 08:59:53;;;;;;;6.18;5.05;;;;;;;24.09;59.21;100255.47;5000005;28;20563;-71
2021/06/11 09:02:19;;;;;;;8.57;5.35;;;;;;;24.24;58.46;100256.88;4990557;28;20045;-72
2021/06/11 09:04:51;;;;;;;10.65;5.43;;;;;;;24.44;57.27;100243.22;4994108;28;20512;-70
2021/06/11 09:07:22;;;;;;;8.48;4.70;;;;;;;24.35;56.61;100257.50;4985695;28;20030;-73
2021/06/11 09:09:54;;;;;;;8.27;4.57;;;;;;;24.66;55.58;100248.88;5017774;28;20120;-69
2021/06/11 09:12:46;;;;;;;8.93;5.25;;;;;;;24.91;56.14;100250.00;4998784;28;20508;-72
2021/06/11 09:15:14;;;;;;;9.27;5.50;;;;;;;24.81;56.37;100244.09;4969531;28;20125;-71
2021/06/11 09:17:43;;;;;;;6.60;4.80;;;;;;;25.13;55.28;100242.38;4953445;28;20035;-74
2021/06/11 09:20:12;;;;;;;6.90;4.43;;;;;;;25.16;54.74;100245.81;4969469;28;20038;-70
2021/06/11 09:22:58;;;;;;;6.53;4.65;;;;;;;25.29;53.13;100245.47;4969536;28;20109;-69
2021/06/11 09:25:39;;;;;;;5.72;4.18;;;;;;;25.19;52.41;100234.28;4966482;28;20502;-70
2021/06/11 09:28:09;;;;;;;7.88;5.05;;;;;;;25.28;53.79;100228.75;4969121;28;20494;-72
2021/06/11 09:30:38;;;;;;;6.70;3.75;;;;;;;25.21;49.54;100211.34;4968747;28;20113;-72
2021/06/11 09:33:17;;;;;;;4.75;3.60;;;;;;;25.51;50.38;100216.69;4969963;28;20556;-73
2021/06/11 09:35:44;;;;;;;;;;;;;;;25.75;49.19;100208.94;4961941;28;20055;-73
2021/06/11 09:38:12;;;;;;;5.20;3.47;;;;;;;26.08;46.50;100198.25;4969785;28;19910;-72
2021/06/11 09:40:38;;;;;;;7.85;3.67;;;;;;;26.19;47.18;100203.22;4969782;28;20050;-72
2021/06/11 09:43:04;;;;;;;4.30;3.05;;;;;;;26.30;45.69;100201.09;4969206;28;20049;-73
2021/06/11 09:45:59;;;;;;;9.45;3.33;;;;;;;26.44;44.02;100195.31;4969815;28;20038;-71
2021/06/11 09:48:27;;;;;;;5.32;3.60;;;;;;;26.56;45.80;100178.19;4969617;28;20034;-71
2021/06/11 09:50:53;;;;;;;7.53;3.63;;;;;;;26.71;45.39;100198.81;4952478;28;20434;-70
2021/06/11 09:53:23;;;;;;;12.48;3.83;;;;;;;26.59;44.72;100141.88;5021708;28;20034;-70
2021/06/11 09:55:54;;;;;;;6.30;3.50;;;;;;;27.12;46.08;100201.81;5022989;28;20022;-74
2021/06/11 09:58:27;;;;;;;5.25;3.60;;;;;;;27.24;44.79;100189.03;5027564;28;20032;-71
2021/06/11 10:00:58;;;;;;;8.38;3.72;;;;;;;27.38;43.03;100191.19;5022725;28;20045;-71
2021/06/11 10:03:34;;;;;;;6.57;3.60;;;;;;;27.36;45.32;100179.78;5017182;28;20121;-72
2021/06/11 10:06:02;;;;;;;4.88;3.35;;;;;;;27.37;44.03;100190.31;5013959;28;20037;-70
2021/06/11 10:08:28;;;;;;;4.68;2.92;;;;;;;27.48;42.46;100197.03;5012267;28;20076;-71
2021/06/11 10:10:59;;;;;;;4.65;3.00;;;;;;;27.53;41.68;100185.34;4996199;28;20105;-71
2021/06/11 10:13:25;;;;;;;7.38;3.08;;;;;;;27.75;40.33;100192.44;4961465;28;20121;-71
2021/06/11 10:15:53;;;;;;;4.43;3.22;;;;;;;27.93;40.19;100199.69;4995909;28;20487;-71
2021/06/11 10:18:20;;;;;;;3.97;3.05;;;;;;;28.09;41.24;100196.47;4995395;28;20038;-71
2021/06/11 10:20:46;;;;;;;6.97;3.05;;;;;;;27.34;40.47;100193.09;4995651;28;20088;-71
2021/06/11 10:23:17;;;;;;;3.70;3.10;;;;;;;27.27;41.19;100191.59;4995475;28;20162;-71
2021/06/11 10:25:45;;;;;;;6.68;3.35;;;;;;;26.97;42.68;100144.09;4995591;28;20077;-71
2021/06/11 10:28:18;;;;;;;3.37;2.93;;;;;;;27.11;42.97;100184.19;5010468;28;20034;-71
2021/06/11 10:30:44;;;;;;;5.63;2.90;;;;;;;27.06;41.68;100175.53;4995220;28;20034;-72
2021/06/11 10:33:10;;;;;;;9.70;3.45;;;;;;;27.21;41.33;100168.81;4995347;28;20109;-72
2021/06/11 10:35:47;;;;;;;3.47;2.95;;;;;;;27.72;39.41;100171.38;4995293;28;20029;-72
2021/06/11 10:38:33;;;;;;;8.23;3.03;;;;;;;27.93;38.93;100170.50;4995367;28;20045;-73
2021/06/11 10:41:04;;;;;;;4.22;3.30;;;;;;;27.96;40.64;100160.69;4995109;28;20030;-72
2021/06/11 10:43:38;;;;;;;4.18;2.85;;;;;;;27.58;40.07;100119.72;4994895;28;20034;-72
2021/06/11 10:46:19;;;;;;;5.00;3.03;;;;;;;28.23;38.50;100143.66;4993960;28;20480;-72
2021/06/11 10:48:57;;;;;;;3.55;2.97;;;;;;;28.34;37.45;100159.16;4995102;28;20030;-72
2021/06/11 10:51:31;;;;;;;3.97;3.20;;;;;;;27.62;38.30;100157.59;4995099;28;20117;-72
2021/06/11 10:54:15;;;;;;;4.63;3.25;;;;;;;27.51;42.27;100162.47;4995038;28;20084;-72
2021/06/11 10:56:56;;;;;;;4.47;3.20;;;;;;;28.05;40.68;100157.69;4995073;28;20022;-71
2021/06/11 10:59:32;;;;;;;5.35;3.72;;;;;;;27.61;38.57;100158.50;4994523;28;20038;-72
2021/06/11 11:01:57;;;;;;;7.00;3.20;;;;;;;27.69;40.88;100160.88;4994402;28;20042;-72
2021/06/11 11:04:35;;;;;;;4.03;3.20;;;;;;;27.80;38.18;100168.41;4994821;28;20117;-73
2021/06/11 11:07:36;;;;;;;8.40;3.17;;;;;;;28.16;38.73;100155.47;4994625;28;20117;-72
2021/06/11 11:10:06;;;;;;;6.15;3.35;;;;;;;28.02;39.28;100152.50;4994667;28;20478;-71
2021/06/11 11:13:00;;;;;;;6.47;3.40;;;;;;;28.66;36.62;100140.97;4994501;28;20387;-72
2021/06/11 11:15:37;;;;;;;3.25;2.90;;;;;;;28.79;36.40;100143.13;4994684;28;20105;-72
2021/06/11 11:18:05;;;;;;;3.88;2.78;;;;;;;28.92;36.29;100131.00;4994504;28;20089;-72
2021/06/11 11:20:34;;;;;;;5.45;2.97;;;;;;;29.23;37.84;100150.03;4995180;28;20563;-72
2021/06/11 11:23:06;;;;;;;6.38;3.33;;;;;;;28.81;41.92;100099.63;4995398;28;20029;-72
2021/06/11 11:25:35;;;;;;;4.03;3.13;;;;;;;29.54;39.19;100130.84;5013857;28;20428;-72